createdAt,value
2019-01-11T00:00:53.158Z,25.35
2019-01-11T00:03:20.656Z,25.42
2019-01-11T00:05:48.243Z,25.53
2019-01-11T00:08:15.776Z,25.68
2019-01-11T00:10:43.352Z,25.69
2019-01-11T00:13:10.893Z,25.65
2019-01-11T00:15:38.853Z,25.71
2019-01-11T00:18:06.382Z,25.72
2019-01-11T00:20:33.914Z,25.79
2019-01-11T00:23:01.412Z,25.84
2019-01-11T00:25:28.946Z,25.91
2019-01-11T00:27:56.483Z,25.96
2019-01-11T00:30:23.984Z,25.94
2019-01-11T00:32:51.492Z,25.92
2019-01-11T00:35:19.020Z,26.01
2019-01-11T00:37:46.535Z,26.01
2019-01-11T00:40:14.068Z,26.06
2019-01-11T00:42:41.573Z,26.05
2019-01-11T00:45:09.857Z,26.07
2019-01-11T00:47:37.387Z,26.09
2019-01-11T00:50:06.258Z,26.12
2019-01-11T00:52:33.796Z,26.12
2019-01-11T00:55:01.861Z,26.15
2019-01-11T00:57:29.408Z,26.20
2019-01-11T00:59:56.906Z,26.23
2019-01-11T01:02:24.467Z,26.24
2019-01-11T01:04:51.987Z,26.24
2019-01-11T01:07:19.513Z,26.27
2019-01-11T01:09:47.312Z,26.24
2019-01-11T01:12:14.835Z,26.28
2019-01-11T01:14:42.325Z,26.30
2019-01-11T01:17:09.878Z,26.29
2019-01-11T01:19:37.382Z,26.32
2019-01-11T01:22:04.986Z,26.33
2019-01-11T01:24:32.525Z,26.36
2019-01-11T01:27:00.041Z,26.36
2019-01-11T01:29:27.563Z,26.36
2019-01-11T01:31:55.077Z,26.39
2019-01-11T01:34:22.603Z,26.42
2019-01-11T01:36:50.141Z,26.42
2019-01-11T01:39:17.645Z,26.42
2019-01-11T01:41:45.191Z,26.40
2019-01-11T01:44:12.782Z,26.39
2019-01-11T01:46:40.307Z,26.39
2019-01-11T01:49:07.821Z,26.46
2019-01-11T01:51:35.356Z,26.44
2019-01-11T01:54:02.851Z,26.45
2019-01-11T01:56:30.388Z,26.45
2019-01-11T01:58:57.895Z,26.47
2019-01-11T02:01:25.415Z,26.45
2019-01-11T02:03:52.927Z,26.50
2019-01-11T02:06:20.462Z,26.50
2019-01-11T02:08:48.001Z,26.56
2019-01-11T02:11:15.505Z,26.54
2019-01-11T02:13:43.002Z,26.54
2019-01-11T02:16:10.522Z,26.54
2019-01-11T02:18:38.216Z,26.61
2019-01-11T02:21:05.715Z,26.58
2019-01-11T02:23:33.216Z,26.58
2019-01-11T02:26:00.741Z,26.57
2019-01-11T02:28:28.239Z,26.59
2019-01-11T02:30:55.758Z,26.60
2019-01-11T02:33:24.974Z,26.64
2019-01-11T02:35:52.510Z,26.62
2019-01-11T02:38:20.028Z,26.61
2019-01-11T02:40:47.711Z,26.66
2019-01-11T02:43:15.243Z,26.66
2019-01-11T02:45:42.784Z,26.67
2019-01-11T02:48:10.291Z,26.69
2019-01-11T02:50:37.806Z,26.68
2019-01-11T02:53:05.323Z,26.67
2019-01-11T02:55:32.831Z,26.71
2019-01-11T02:58:00.352Z,26.69
2019-01-11T03:00:27.853Z,26.72
2019-01-11T03:02:55.393Z,26.69
2019-01-11T03:05:22.914Z,26.73
2019-01-11T03:07:50.403Z,26.73
2019-01-11T03:10:18.803Z,26.74
2019-01-11T03:12:46.324Z,26.74
2019-01-11T03:15:14.286Z,26.74
2019-01-11T03:17:41.885Z,26.77
2019-01-11T03:20:10.531Z,26.77
2019-01-11T03:22:38.063Z,26.77
2019-01-11T03:25:06.672Z,26.73
2019-01-11T03:27:34.169Z,26.76
2019-01-11T03:30:01.700Z,26.80
2019-01-11T03:32:29.304Z,26.77
2019-01-11T03:35:01.391Z,26.77
2019-01-11T03:37:28.909Z,26.77
2019-01-11T03:39:56.400Z,26.75
2019-01-11T03:42:23.933Z,26.79
2019-01-11T03:44:51.454Z,26.74
2019-01-11T03:47:18.986Z,26.77
2019-01-11T03:49:46.504Z,26.80
2019-01-11T03:52:14.012Z,26.77
2019-01-11T03:54:41.524Z,26.78
2019-01-11T03:57:09.069Z,26.77
2019-01-11T03:59:36.577Z,26.75
2019-01-11T04:02:04.107Z,26.77
2019-01-11T04:04:31.633Z,26.76
2019-01-11T04:06:59.137Z,26.74
2019-01-11T04:09:26.622Z,26.74
2019-01-11T04:11:54.201Z,26.75
2019-01-11T04:14:21.715Z,26.77
2019-01-11T04:16:49.256Z,26.77
2019-01-11T04:19:16.926Z,26.76
2019-01-11T04:21:46.121Z,26.76
2019-01-11T04:24:13.614Z,26.81
2019-01-11T04:26:41.216Z,26.79
2019-01-11T04:29:08.795Z,26.79
2019-01-11T04:31:36.291Z,26.81
2019-01-11T04:34:03.810Z,26.84
2019-01-11T04:36:31.343Z,26.91
2019-01-11T04:38:58.844Z,26.95
2019-01-11T04:41:26.388Z,26.89
2019-01-11T04:43:53.891Z,26.91
2019-01-11T04:46:21.426Z,26.92
2019-01-11T04:48:48.917Z,27.12
2019-01-11T04:51:16.448Z,26.96
2019-01-11T04:53:43.950Z,27.07
2019-01-11T04:56:11.475Z,27.03
2019-01-11T04:58:38.985Z,27.10
2019-01-11T05:01:06.550Z,27.13
2019-01-11T05:03:34.067Z,27.00
2019-01-11T05:06:01.603Z,27.02
2019-01-11T05:08:29.116Z,26.92
2019-01-11T05:10:56.616Z,26.88
2019-01-11T05:13:25.784Z,26.87
2019-01-11T05:15:53.281Z,26.85
2019-01-11T05:18:20.811Z,26.93
2019-01-11T05:20:48.330Z,26.89
2019-01-11T05:23:15.842Z,26.86
2019-01-11T05:25:43.372Z,26.91
2019-01-11T05:28:10.864Z,26.94
2019-01-11T05:30:38.392Z,27.07
2019-01-11T05:33:05.905Z,27.14
2019-01-11T05:35:33.408Z,27.03
2019-01-11T05:38:00.934Z,27.09
2019-01-11T05:40:28.498Z,27.08
2019-01-11T05:42:56.038Z,27.09
2019-01-11T05:45:23.912Z,27.12
2019-01-11T05:47:51.449Z,27.13
2019-01-11T05:50:24.063Z,27.18
2019-01-11T05:52:48.232Z,27.16
2019-01-11T05:55:17.380Z,27.15
2019-01-11T05:57:52.486Z,27.13
2019-01-11T06:00:19.996Z,27.10
2019-01-11T06:02:47.494Z,27.11
2019-01-11T06:05:15.029Z,27.13
2019-01-11T06:07:44.171Z,27.17
2019-01-11T06:10:12.773Z,27.17
2019-01-11T06:12:40.286Z,27.19
2019-01-11T06:15:07.808Z,27.20
2019-01-11T06:17:35.306Z,27.17
2019-01-11T06:20:02.834Z,27.27
2019-01-11T06:22:30.330Z,27.24
2019-01-11T06:24:57.872Z,27.24
2019-01-11T06:27:25.396Z,27.24
2019-01-11T06:29:52.914Z,27.30
2019-01-11T06:32:20.418Z,27.24
2019-01-11T06:34:47.935Z,27.30
2019-01-11T06:37:15.466Z,27.30
2019-01-11T06:39:42.996Z,27.29
2019-01-11T06:42:12.158Z,27.18
2019-01-11T06:44:39.708Z,27.28
2019-01-11T06:47:07.234Z,27.31
2019-01-11T06:49:34.754Z,27.34
2019-01-11T06:52:02.255Z,27.33
2019-01-11T06:54:29.898Z,27.34
2019-01-11T06:56:57.404Z,27.33
2019-01-11T06:59:24.942Z,27.33
2019-01-11T07:01:52.497Z,27.38
2019-01-11T07:04:20.020Z,27.31
2019-01-11T07:06:47.510Z,27.36
2019-01-11T07:09:15.064Z,27.38
2019-01-11T07:11:42.638Z,27.30
2019-01-11T07:14:10.135Z,27.29
2019-01-11T07:16:37.656Z,27.06
2019-01-11T07:19:05.162Z,26.73
2019-01-11T07:21:32.687Z,26.85
2019-01-11T07:24:00.211Z,26.81
2019-01-11T07:26:27.822Z,26.81
2019-01-11T07:28:55.347Z,26.78
2019-01-11T07:31:23.848Z,26.81
2019-01-11T07:33:51.352Z,26.85
2019-01-11T07:36:20.543Z,26.90
2019-01-11T07:38:48.027Z,26.97
2019-01-11T07:41:15.546Z,27.00
2019-01-11T07:43:43.073Z,27.07
2019-01-11T07:46:10.571Z,27.11
2019-01-11T07:48:38.097Z,27.20
2019-01-11T07:51:05.621Z,27.19
2019-01-11T07:53:33.172Z,27.15
2019-01-11T07:56:00.667Z,27.22
2019-01-11T07:58:28.198Z,27.28
2019-01-11T08:00:55.694Z,27.38
2019-01-11T08:03:23.208Z,27.29
2019-01-11T08:05:50.722Z,27.27
2019-01-11T08:08:18.239Z,27.33
2019-01-11T08:10:45.751Z,27.34
2019-01-11T08:13:13.281Z,27.33
2019-01-11T08:15:40.856Z,27.34
2019-01-11T08:18:08.400Z,27.34
2019-01-11T08:20:35.891Z,27.40
2019-01-11T08:23:03.418Z,27.39
2019-01-11T08:25:30.956Z,27.40
2019-01-11T08:27:58.445Z,27.35
2019-01-11T08:30:25.947Z,27.40
2019-01-11T08:32:53.479Z,27.43
2019-01-11T08:35:21.073Z,27.44
2019-01-11T08:37:48.643Z,27.39
2019-01-11T08:40:16.139Z,27.29
2019-01-11T08:42:43.976Z,27.40
2019-01-11T08:45:12.489Z,27.37
2019-01-11T08:47:40.067Z,27.70
2019-01-11T08:50:09.208Z,27.48
2019-01-11T08:52:36.712Z,27.70
2019-01-11T08:55:04.815Z,27.31
2019-01-11T08:57:32.307Z,27.29
2019-01-11T08:59:59.842Z,27.28
2019-01-11T09:02:27.379Z,27.60
2019-01-11T09:04:54.925Z,27.43
2019-01-11T09:07:22.431Z,27.79
2019-01-11T09:09:49.925Z,27.91
2019-01-11T09:12:17.473Z,27.71
2019-01-11T09:14:46.620Z,28.03
2019-01-11T09:17:14.363Z,28.09
2019-01-11T09:19:41.922Z,27.85
2019-01-11T09:22:09.421Z,27.98
2019-01-11T09:24:36.961Z,28.38
2019-01-11T09:27:04.451Z,27.96
2019-01-11T09:29:32.042Z,27.92
2019-01-11T09:31:59.682Z,28.46
2019-01-11T09:34:27.225Z,28.08
2019-01-11T09:36:54.799Z,28.18
2019-01-11T09:39:22.302Z,28.10
2019-01-11T09:41:49.829Z,27.95
2019-01-11T09:44:17.333Z,27.97
2019-01-11T09:46:44.859Z,27.96
2019-01-11T09:49:12.399Z,27.97
2019-01-11T09:51:39.955Z,27.93
2019-01-11T09:54:07.469Z,27.84
2019-01-11T09:56:35.003Z,27.71
2019-01-11T09:59:02.600Z,27.88
2019-01-11T10:01:30.249Z,27.88
2019-01-11T10:03:57.745Z,27.82
2019-01-11T10:06:25.265Z,27.76
2019-01-11T10:08:52.791Z,27.72
2019-01-11T10:11:20.299Z,27.65
2019-01-11T10:13:47.857Z,27.68
2019-01-11T10:16:15.352Z,27.69
2019-01-11T10:18:42.892Z,27.69
2019-01-11T10:21:10.393Z,27.72
2019-01-11T10:23:37.917Z,27.67
2019-01-11T10:26:06.197Z,27.64
2019-01-11T10:28:33.729Z,27.58
2019-01-11T10:31:01.223Z,27.67
2019-01-11T10:33:28.727Z,27.57
2019-01-11T10:35:56.262Z,27.64
2019-01-11T10:38:23.766Z,27.83
2019-01-11T10:40:51.315Z,27.55
2019-01-11T10:43:18.843Z,27.58
2019-01-11T10:45:46.395Z,27.64
2019-01-11T10:48:13.914Z,27.70
2019-01-11T10:50:41.431Z,27.68
2019-01-11T10:53:08.923Z,27.65
2019-01-11T10:55:36.441Z,27.67
2019-01-11T10:58:04.110Z,27.66
2019-01-11T11:00:31.695Z,27.60
2019-01-11T11:02:59.195Z,27.59
2019-01-11T11:05:26.806Z,27.62
2019-01-11T11:07:54.326Z,27.61
2019-01-11T11:10:21.834Z,27.73
2019-01-11T11:12:49.523Z,27.42
2019-01-11T11:15:17.399Z,27.50
2019-01-11T11:17:45.201Z,27.48
2019-01-11T11:20:13.802Z,27.42
2019-01-11T11:22:41.285Z,27.49
2019-01-11T11:25:10.000Z,27.43
2019-01-11T11:27:37.531Z,27.42
2019-01-11T11:30:06.514Z,27.36
2019-01-11T11:32:35.691Z,27.31
2019-01-11T11:35:03.196Z,27.33
2019-01-11T11:37:30.722Z,27.30
2019-01-11T11:39:58.258Z,27.29
2019-01-11T11:42:25.755Z,27.39
2019-01-11T11:44:53.266Z,27.53
2019-01-11T11:47:20.814Z,27.50
2019-01-11T11:49:48.345Z,27.56
2019-01-11T11:52:15.858Z,27.51
2019-01-11T11:54:43.382Z,27.43
2019-01-11T11:57:10.904Z,27.38
2019-01-11T11:59:38.419Z,27.39
2019-01-11T12:02:05.950Z,27.33
2019-01-11T12:04:33.455Z,27.33
2019-01-11T12:07:00.974Z,27.29
2019-01-11T12:09:28.476Z,27.25
2019-01-11T12:11:56.007Z,27.17
2019-01-11T12:14:23.500Z,27.26
2019-01-11T12:16:51.019Z,27.27
2019-01-11T12:19:18.525Z,27.29
2019-01-11T12:21:47.824Z,27.25
2019-01-11T12:24:15.330Z,27.26
2019-01-11T12:26:42.838Z,27.44
2019-01-11T12:29:10.594Z,27.43
2019-01-11T12:31:38.122Z,27.41
2019-01-11T12:34:05.660Z,27.44
2019-01-11T12:36:33.189Z,27.34
2019-01-11T12:39:00.702Z,27.42
2019-01-11T12:41:28.203Z,27.43
2019-01-11T12:43:55.728Z,27.43
2019-01-11T12:46:23.227Z,27.49
2019-01-11T12:48:50.716Z,27.83
2019-01-11T12:51:18.184Z,27.67
2019-01-11T12:53:45.726Z,27.62
2019-01-11T12:56:13.225Z,27.59
2019-01-11T12:58:40.744Z,27.58
2019-01-11T13:01:08.242Z,27.53
2019-01-11T13:03:35.769Z,27.62
2019-01-11T13:06:03.276Z,27.58
2019-01-11T13:08:30.798Z,27.56
2019-01-11T13:10:58.300Z,27.55
2019-01-11T13:13:25.953Z,27.68
2019-01-11T13:15:53.446Z,27.68
2019-01-11T13:18:20.946Z,27.73
2019-01-11T13:20:48.469Z,27.71
2019-01-11T13:23:16.010Z,27.76
2019-01-11T13:25:43.533Z,27.92
2019-01-11T13:28:11.036Z,28.08
2019-01-11T13:30:38.542Z,27.96
2019-01-11T13:33:06.064Z,27.81
2019-01-11T13:35:33.838Z,27.83
2019-01-11T13:38:01.374Z,27.86
2019-01-11T13:40:28.870Z,27.74
2019-01-11T13:42:56.384Z,27.74
2019-01-11T13:45:23.916Z,27.71
2019-01-11T13:47:51.430Z,27.72
2019-01-11T13:50:20.638Z,27.76
2019-01-11T13:52:48.132Z,27.94
2019-01-11T13:55:15.635Z,27.98
2019-01-11T13:57:43.155Z,28.03
2019-01-11T14:00:12.288Z,28.06
2019-01-11T14:02:39.834Z,28.19
2019-01-11T14:05:07.325Z,28.20
2019-01-11T14:07:34.872Z,28.24
2019-01-11T14:10:02.403Z,28.27
2019-01-11T14:12:29.899Z,28.27
2019-01-11T14:14:57.451Z,28.24
2019-01-11T14:17:24.950Z,28.14
2019-01-11T14:19:52.471Z,28.20
2019-01-11T14:22:19.988Z,28.20
2019-01-11T14:24:47.502Z,28.12
2019-01-11T14:27:15.002Z,28.06
2019-01-11T14:29:42.541Z,28.15
2019-01-11T14:32:10.049Z,28.09
2019-01-11T14:34:37.560Z,28.04
2019-01-11T14:37:05.058Z,28.01
2019-01-11T14:39:32.608Z,27.97
2019-01-11T14:42:00.306Z,27.97
2019-01-11T14:44:27.832Z,27.96
2019-01-11T14:46:55.495Z,27.99
2019-01-11T14:49:22.996Z,27.86
2019-01-11T14:51:50.542Z,27.60
2019-01-11T14:54:18.028Z,27.39
2019-01-11T14:56:45.555Z,27.26
2019-01-11T14:59:13.084Z,27.27
2019-01-11T15:01:40.594Z,27.15
2019-01-11T15:04:08.136Z,27.02
2019-01-11T15:06:35.627Z,27.37
2019-01-11T15:09:04.136Z,26.91
2019-01-11T15:11:31.664Z,27.21
2019-01-11T15:13:59.181Z,26.69
2019-01-11T15:16:26.712Z,26.43
2019-01-11T15:18:54.235Z,26.62
2019-01-11T15:21:21.771Z,26.56
2019-01-11T15:23:49.303Z,26.56
2019-01-11T15:26:16.824Z,26.44
2019-01-11T15:28:44.315Z,26.44
2019-01-11T15:31:11.847Z,26.69
2019-01-11T15:33:39.382Z,26.70
2019-01-11T15:36:06.899Z,26.61
2019-01-11T15:38:34.411Z,26.67
2019-01-11T15:41:01.915Z,26.60
2019-01-11T15:43:29.450Z,26.61
2019-01-11T15:45:59.529Z,26.64
2019-01-11T15:48:28.698Z,26.41
2019-01-11T15:50:56.245Z,26.23
2019-01-11T15:53:23.763Z,26.29
2019-01-11T15:55:51.344Z,26.19
2019-01-11T15:58:18.847Z,26.04
2019-01-11T16:00:47.340Z,26.05
2019-01-11T16:03:14.883Z,25.94
2019-01-11T16:05:42.397Z,26.18
2019-01-11T16:08:09.916Z,26.33
2019-01-11T16:10:39.040Z,26.23
2019-01-11T16:13:08.197Z,26.23
2019-01-11T16:15:37.351Z,26.06
2019-01-11T16:18:09.230Z,25.99
2019-01-11T16:20:36.759Z,26.07
2019-01-11T16:23:04.304Z,26.01
2019-01-11T16:25:31.985Z,26.09
2019-01-11T16:27:59.792Z,26.01
2019-01-11T16:30:27.306Z,26.14
2019-01-11T16:32:54.816Z,26.23
2019-01-11T16:35:22.336Z,26.22
2019-01-11T16:37:49.859Z,26.29
2019-01-11T16:40:17.387Z,26.22
2019-01-11T16:42:44.928Z,26.25
2019-01-11T16:45:13.198Z,27.24
2019-01-11T16:47:40.741Z,26.65
2019-01-11T16:50:14.963Z,26.40
2019-01-11T16:52:46.290Z,26.46
2019-01-11T16:55:11.731Z,26.54
2019-01-11T16:57:39.306Z,26.77
2019-01-11T17:00:08.474Z,26.95
2019-01-11T17:02:36.748Z,27.02
2019-01-11T17:05:05.269Z,27.35
2019-01-11T17:07:32.787Z,27.40
2019-01-11T17:10:00.394Z,27.97
2019-01-11T17:12:28.009Z,27.80
2019-01-11T17:14:55.523Z,28.27
2019-01-11T17:17:23.063Z,28.10
2019-01-11T17:19:50.622Z,27.89
2019-01-11T17:22:18.125Z,28.19
2019-01-11T17:24:45.653Z,28.00
2019-01-11T17:27:13.219Z,27.95
2019-01-11T17:29:46.981Z,28.16
2019-01-11T17:32:10.010Z,28.33
2019-01-11T17:34:37.515Z,28.00
2019-01-11T17:37:05.068Z,27.79
2019-01-11T17:39:32.603Z,27.52
2019-01-11T17:42:00.157Z,27.39
2019-01-11T17:44:27.650Z,27.29
2019-01-11T17:46:55.197Z,26.93
2019-01-11T17:49:22.701Z,26.93
2019-01-11T17:51:50.215Z,26.63
2019-01-11T17:54:17.729Z,26.62
2019-01-11T17:56:45.246Z,26.56
2019-01-11T17:59:12.761Z,26.05
2019-01-11T18:01:40.300Z,26.39
2019-01-11T18:04:07.819Z,26.24
2019-01-11T18:06:35.306Z,26.36
2019-01-11T18:09:02.827Z,26.58
2019-01-11T18:11:30.323Z,26.68
2019-01-11T18:13:57.875Z,26.75
2019-01-11T18:16:25.382Z,26.74
2019-01-11T18:18:52.925Z,26.89
2019-01-11T18:21:21.295Z,26.97
2019-01-11T18:23:48.832Z,27.08
2019-01-11T18:26:16.369Z,27.15
2019-01-11T18:28:43.881Z,27.76
2019-01-11T18:31:11.390Z,27.52
2019-01-11T18:33:38.896Z,27.75
2019-01-11T18:36:06.430Z,27.42
2019-01-11T18:38:33.955Z,27.22
2019-01-11T18:41:01.533Z,27.43
2019-01-11T18:43:29.200Z,27.60
2019-01-11T18:45:56.763Z,27.09
2019-01-11T18:48:24.257Z,27.47
2019-01-11T18:50:51.822Z,27.57
2019-01-11T18:53:19.356Z,27.82
2019-01-11T18:55:46.925Z,27.79
2019-01-11T18:58:14.473Z,28.09
2019-01-11T19:00:41.984Z,27.74
2019-01-11T19:03:09.508Z,27.76
2019-01-11T19:05:37.060Z,27.70
2019-01-11T19:08:04.559Z,27.97
2019-01-11T19:10:32.091Z,27.87
2019-01-11T19:12:59.658Z,27.70
2019-01-11T19:15:27.447Z,27.67
2019-01-11T19:17:54.963Z,27.84
2019-01-11T19:20:26.286Z,27.82
2019-01-11T19:22:53.827Z,28.00
2019-01-11T19:25:21.332Z,27.81
2019-01-11T19:27:48.857Z,27.85
2019-01-11T19:30:17.997Z,27.96
2019-01-11T19:32:45.618Z,27.94
2019-01-11T19:35:13.127Z,28.31
2019-01-11T19:37:40.674Z,28.45
2019-01-11T19:40:09.757Z,28.32
2019-01-11T19:42:37.296Z,28.10
2019-01-11T19:45:06.457Z,28.08
2019-01-11T19:47:34.312Z,28.31
2019-01-11T19:50:01.942Z,28.18
2019-01-11T19:52:29.632Z,28.18
2019-01-11T19:54:57.158Z,29.56
2019-01-11T19:57:24.695Z,28.03
2019-01-11T19:59:52.265Z,28.96
2019-01-11T20:02:19.795Z,29.02
2019-01-11T20:04:47.330Z,29.04
2019-01-11T20:07:14.835Z,28.93
2019-01-11T20:09:42.378Z,29.05
2019-01-11T20:12:09.933Z,28.92
2019-01-11T20:14:37.613Z,28.88
2019-01-11T20:17:05.160Z,28.60
2019-01-11T20:19:32.691Z,28.99
2019-01-11T20:22:00.220Z,28.83
2019-01-11T20:24:27.764Z,28.75
2019-01-11T20:26:55.253Z,28.46
2019-01-11T20:29:22.777Z,28.32
2019-01-11T20:31:50.332Z,28.08
2019-01-11T20:34:18.014Z,28.01
2019-01-11T20:36:47.177Z,28.23
2019-01-11T20:39:14.684Z,28.48
2019-01-11T20:41:42.202Z,28.40
2019-01-11T20:44:09.700Z,28.60
2019-01-11T20:46:37.224Z,28.51
2019-01-11T20:49:04.766Z,28.42
2019-01-11T20:51:32.349Z,28.81
2019-01-11T20:53:59.888Z,28.73
2019-01-11T20:56:27.409Z,28.72
2019-01-11T20:58:54.926Z,29.74
2019-01-11T21:01:22.747Z,29.87
2019-01-11T21:03:50.236Z,31.04
2019-01-11T21:06:17.752Z,31.15
2019-01-11T21:08:45.294Z,31.25
2019-01-11T21:11:12.830Z,31.31
2019-01-11T21:13:40.324Z,31.60
2019-01-11T21:16:07.874Z,31.43
2019-01-11T21:18:35.390Z,31.57
2019-01-11T21:21:02.943Z,31.62
2019-01-11T21:23:30.473Z,31.70
2019-01-11T21:25:58.008Z,31.74
2019-01-11T21:28:25.501Z,31.31
2019-01-11T21:30:57.254Z,31.24
2019-01-11T21:33:22.294Z,31.57
2019-01-11T21:35:49.808Z,31.80
2019-01-11T21:38:17.322Z,31.53
2019-01-11T21:40:44.855Z,31.63
2019-01-11T21:43:12.347Z,31.72
2019-01-11T21:45:39.876Z,31.67
2019-01-11T21:48:07.386Z,31.81
2019-01-11T21:50:34.990Z,31.68
2019-01-11T21:53:02.573Z,31.76
2019-01-11T21:55:30.118Z,31.69
2019-01-11T21:57:57.644Z,31.37
2019-01-11T22:00:32.742Z,30.93
2019-01-11T22:03:00.398Z,31.08
2019-01-11T22:05:27.908Z,31.12
2019-01-11T22:07:55.424Z,31.41
2019-01-11T22:10:22.950Z,31.06
2019-01-11T22:12:50.468Z,31.16
2019-01-11T22:15:18.476Z,30.97
2019-01-11T22:17:45.968Z,30.86
2019-01-11T22:20:17.179Z,30.72
2019-01-11T22:22:44.721Z,30.72
2019-01-11T22:25:13.180Z,30.53
2019-01-11T22:27:40.708Z,30.42
2019-01-11T22:30:09.888Z,30.61
2019-01-11T22:32:37.392Z,30.79
2019-01-11T22:35:05.882Z,30.63
2019-01-11T22:37:33.448Z,30.51
2019-01-11T22:40:00.953Z,30.25
2019-01-11T22:42:28.456Z,30.22
2019-01-11T22:44:55.996Z,30.17
2019-01-11T22:47:23.497Z,30.22
2019-01-11T22:49:51.014Z,30.33
2019-01-11T22:52:18.539Z,30.54
2019-01-11T22:54:46.039Z,31.23
2019-01-11T22:57:13.630Z,31.31
2019-01-11T22:59:41.168Z,30.98
2019-01-11T23:02:10.334Z,31.21
2019-01-11T23:04:37.839Z,31.24
2019-01-11T23:07:07.013Z,31.02
2019-01-11T23:09:36.128Z,30.96
2019-01-11T23:12:17.398Z,30.85
2019-01-11T23:14:44.896Z,30.66
2019-01-11T23:17:14.042Z,30.64
2019-01-11T23:19:41.553Z,30.47
2019-01-11T23:22:09.093Z,30.37
2019-01-11T23:24:36.628Z,30.38
2019-01-11T23:27:04.153Z,30.24
2019-01-11T23:29:31.654Z,30.25
2019-01-11T23:31:59.172Z,30.22
2019-01-11T23:34:26.675Z,30.18
2019-01-11T23:36:54.199Z,30.07
2019-01-11T23:39:21.743Z,30.05
2019-01-11T23:41:49.255Z,29.99
2019-01-11T23:44:16.781Z,29.95
2019-01-11T23:46:44.301Z,29.92
2019-01-11T23:49:11.799Z,29.85
2019-01-11T23:51:39.327Z,29.79
2019-01-11T23:54:06.841Z,29.74
2019-01-11T23:56:34.363Z,29.76
2019-01-11T23:59:01.905Z,29.62
